sensor_id;sensor_type;location;lat;lon;timestamp;P1;durP1;ratioP1;P2;durP2;ratioP2
59271;SDS011;45043;51.068;7.026;2023-02-01T00:00:51;20.50;;;9.90;;
59271;SDS011;45043;51.068;7.026;2023-02-01T00:03:52;16.07;;;9.33;;
59271;SDS011;45043;51.068;7.026;2023-02-01T00:06:52;20.63;;;9.40;;
59271;SDS011;45043;51.068;7.026;2023-02-01T00:09:53;17.73;;;9.33;;
59271;SDS011;45043;51.068;7.026;2023-02-01T00:12:53;15.80;;;8.60;;
59271;SDS011;45043;51.068;7.026;2023-02-01T00:15:53;14.87;;;8.53;;
59271;SDS011;45043;51.068;7.026;2023-02-01T00:19:13;19.63;;;9.73;;
59271;SDS011;45043;51.068;7.026;2023-02-01T00:22:15;26.53;;;9.30;;
59271;SDS011;45043;51.068;7.026;2023-02-01T00:25:15;21.73;;;8.90;;
59271;SDS011;45043;51.068;7.026;2023-02-01T00:28:15;18.47;;;8.80;;
59271;SDS011;45043;51.068;7.026;2023-02-01T00:31:16;17.67;;;8.70;;
59271;SDS011;45043;51.068;7.026;2023-02-01T00:34:16;21.60;;;9.43;;
59271;SDS011;45043;51.068;7.026;2023-02-01T00:37:17;25.50;;;8.97;;
59271;SDS011;45043;51.068;7.026;2023-02-01T00:40:17;19.30;;;8.10;;
59271;SDS011;45043;51.068;7.026;2023-02-01T00:43:18;15.67;;;8.00;;
59271;SDS011;45043;51.068;7.026;2023-02-01T00:46:19;22.20;;;9.10;;
59271;SDS011;45043;51.068;7.026;2023-02-01T00:49:19;22.63;;;8.57;;
59271;SDS011;45043;51.068;7.026;2023-02-01T00:52:20;22.13;;;9.00;;
59271;SDS011;45043;51.068;7.026;2023-02-01T00:55:20;20.13;;;8.20;;
59271;SDS011;45043;51.068;7.026;2023-02-01T00:58:21;20.00;;;7.63;;
59271;SDS011;45043;51.068;7.026;2023-02-01T01:01:24;20.80;;;8.50;;
59271;SDS011;45043;51.068;7.026;2023-02-01T01:04:26;16.23;;;7.23;;
59271;SDS011;45043;51.068;7.026;2023-02-01T01:07:27;17.13;;;7.50;;
59271;SDS011;45043;51.068;7.026;2023-02-01T01:10:28;19.23;;;7.13;;
59271;SDS011;45043;51.068;7.026;2023-02-01T01:13:29;16.90;;;6.90;;
59271;SDS011;45043;51.068;7.026;2023-02-01T01:16:30;16.93;;;6.23;;
59271;SDS011;45043;51.068;7.026;2023-02-01T01:19:31;13.80;;;5.97;;
59271;SDS011;45043;51.068;7.026;2023-02-01T01:22:31;18.67;;;6.17;;
59271;SDS011;45043;51.068;7.026;2023-02-01T01:25:32;18.93;;;6.73;;
59271;SDS011;45043;51.068;7.026;2023-02-01T01:28:36;17.97;;;5.50;;
59271;SDS011;45043;51.068;7.026;2023-02-01T01:31:37;17.20;;;6.33;;
59271;SDS011;45043;51.068;7.026;2023-02-01T01:34:37;14.63;;;5.43;;
59271;SDS011;45043;51.068;7.026;2023-02-01T01:37:38;17.20;;;5.63;;
59271;SDS011;45043;51.068;7.026;2023-02-01T01:40:39;15.70;;;6.20;;
59271;SDS011;45043;51.068;7.026;2023-02-01T01:46:52;12.87;;;5.23;;
59271;SDS011;45043;51.068;7.026;2023-02-01T01:49:53;14.03;;;5.03;;
59271;SDS011;45043;51.068;7.026;2023-02-01T01:52:55;15.23;;;5.00;;
59271;SDS011;45043;51.068;7.026;2023-02-01T01:55:58;12.37;;;4.17;;
59271;SDS011;45043;51.068;7.026;2023-02-01T01:59:01;14.47;;;5.17;;
59271;SDS011;45043;51.068;7.026;2023-02-01T02:02:02;15.37;;;5.13;;
59271;SDS011;45043;51.068;7.026;2023-02-01T02:05:03;13.60;;;4.90;;
59271;SDS011;45043;51.068;7.026;2023-02-01T02:08:05;11.33;;;4.20;;
59271;SDS011;45043;51.068;7.026;2023-02-01T02:11:05;12.93;;;4.87;;
59271;SDS011;45043;51.068;7.026;2023-02-01T02:14:07;12.50;;;4.13;;
59271;SDS011;45043;51.068;7.026;2023-02-01T02:24:24;13.80;;;5.33;;
59271;SDS011;45043;51.068;7.026;2023-02-01T02:31:21;14.67;;;4.70;;
59271;SDS011;45043;51.068;7.026;2023-02-01T02:34:57;14.93;;;4.73;;
59271;SDS011;45043;51.068;7.026;2023-02-01T02:38:16;19.63;;;5.37;;
59271;SDS011;45043;51.068;7.026;2023-02-01T02:41:34;19.53;;;5.40;;
59271;SDS011;45043;51.068;7.026;2023-02-01T02:45:09;14.80;;;4.90;;
59271;SDS011;45043;51.068;7.026;2023-02-01T02:49:05;15.37;;;5.77;;
59271;SDS011;45043;51.068;7.026;2023-02-01T02:52:13;16.57;;;5.10;;
59271;SDS011;45043;51.068;7.026;2023-02-01T02:55:38;15.93;;;5.17;;
59271;SDS011;45043;51.068;7.026;2023-02-01T02:58:41;15.83;;;5.37;;
59271;SDS011;45043;51.068;7.026;2023-02-01T03:02:02;15.53;;;4.77;;
59271;SDS011;45043;51.068;7.026;2023-02-01T03:05:21;16.30;;;5.10;;
59271;SDS011;45043;51.068;7.026;2023-02-01T03:08:27;10.17;;;4.93;;
59271;SDS011;45043;51.068;7.026;2023-02-01T03:11:29;18.37;;;5.77;;
59271;SDS011;45043;51.068;7.026;2023-02-01T03:14:52;17.90;;;5.70;;
59271;SDS011;45043;51.068;7.026;2023-02-01T03:17:57;13.80;;;4.63;;
59271;SDS011;45043;51.068;7.026;2023-02-01T03:21:02;15.07;;;4.97;;
59271;SDS011;45043;51.068;7.026;2023-02-01T03:24:10;17.57;;;5.20;;
59271;SDS011;45043;51.068;7.026;2023-02-01T03:30:36;16.43;;;5.97;;
59271;SDS011;45043;51.068;7.026;2023-02-01T03:33:42;15.03;;;5.33;;
59271;SDS011;45043;51.068;7.026;2023-02-01T03:36:46;16.37;;;5.90;;
59271;SDS011;45043;51.068;7.026;2023-02-01T03:39:58;15.00;;;5.50;;
59271;SDS011;45043;51.068;7.026;2023-02-01T03:43:06;14.67;;;5.30;;
59271;SDS011;45043;51.068;7.026;2023-02-01T03:46:15;14.27;;;5.67;;
59271;SDS011;45043;51.068;7.026;2023-02-01T03:49:29;13.57;;;5.97;;
59271;SDS011;45043;51.068;7.026;2023-02-01T03:52:40;16.47;;;5.60;;
59271;SDS011;45043;51.068;7.026;2023-02-01T03:55:45;22.43;;;6.23;;
59271;SDS011;45043;51.068;7.026;2023-02-01T03:58:47;18.30;;;5.70;;
59271;SDS011;45043;51.068;7.026;2023-02-01T04:02:00;18.87;;;6.47;;
59271;SDS011;45043;51.068;7.026;2023-02-01T04:05:01;19.33;;;6.47;;
59271;SDS011;45043;51.068;7.026;2023-02-01T04:08:01;17.20;;;6.33;;
59271;SDS011;45043;51.068;7.026;2023-02-01T04:11:02;14.77;;;5.20;;
59271;SDS011;45043;51.068;7.026;2023-02-01T04:14:02;16.57;;;5.73;;
59271;SDS011;45043;51.068;7.026;2023-02-01T04:17:05;16.17;;;5.67;;
59271;SDS011;45043;51.068;7.026;2023-02-01T04:20:05;13.23;;;5.80;;
59271;SDS011;45043;51.068;7.026;2023-02-01T04:23:07;14.20;;;4.50;;
59271;SDS011;45043;51.068;7.026;2023-02-01T04:26:07;20.57;;;6.33;;
59271;SDS011;45043;51.068;7.026;2023-02-01T04:29:08;16.97;;;5.47;;
59271;SDS011;45043;51.068;7.026;2023-02-01T04:32:09;17.13;;;5.17;;
59271;SDS011;45043;51.068;7.026;2023-02-01T04:35:10;17.90;;;5.83;;
59271;SDS011;45043;51.068;7.026;2023-02-01T04:38:11;15.87;;;5.60;;
59271;SDS011;45043;51.068;7.026;2023-02-01T04:41:12;16.23;;;5.67;;
59271;SDS011;45043;51.068;7.026;2023-02-01T04:44:13;11.73;;;4.50;;
59271;SDS011;45043;51.068;7.026;2023-02-01T04:47:15;15.50;;;5.33;;
59271;SDS011;45043;51.068;7.026;2023-02-01T04:50:16;18.60;;;5.80;;
59271;SDS011;45043;51.068;7.026;2023-02-01T04:53:16;13.33;;;4.53;;
59271;SDS011;45043;51.068;7.026;2023-02-01T04:56:18;18.30;;;4.40;;
59271;SDS011;45043;51.068;7.026;2023-02-01T04:59:18;14.90;;;4.80;;
59271;SDS011;45043;51.068;7.026;2023-02-01T05:02:18;14.73;;;5.63;;
59271;SDS011;45043;51.068;7.026;2023-02-01T05:05:19;19.40;;;5.60;;
59271;SDS011;45043;51.068;7.026;2023-02-01T05:08:20;17.10;;;5.40;;
59271;SDS011;45043;51.068;7.026;2023-02-01T05:11:22;19.67;;;5.40;;
59271;SDS011;45043;51.068;7.026;2023-02-01T05:14:41;18.07;;;5.50;;
59271;SDS011;45043;51.068;7.026;2023-02-01T05:17:42;15.40;;;4.57;;
59271;SDS011;45043;51.068;7.026;2023-02-01T05:20:42;17.43;;;4.90;;
59271;SDS011;45043;51.068;7.026;2023-02-01T05:23:43;15.67;;;4.93;;
59271;SDS011;45043;51.068;7.026;2023-02-01T05:27:02;18.10;;;5.30;;
59271;SDS011;45043;51.068;7.026;2023-02-01T05:30:06;14.70;;;4.63;;
59271;SDS011;45043;51.068;7.026;2023-02-01T05:33:08;21.87;;;5.67;;
59271;SDS011;45043;51.068;7.026;2023-02-01T05:36:08;16.67;;;5.00;;
59271;SDS011;45043;51.068;7.026;2023-02-01T05:39:09;22.30;;;4.80;;
59271;SDS011;45043;51.068;7.026;2023-02-01T05:42:10;18.50;;;5.80;;
59271;SDS011;45043;51.068;7.026;2023-02-01T05:45:11;22.50;;;5.37;;
59271;SDS011;45043;51.068;7.026;2023-02-01T05:48:11;18.00;;;4.67;;
59271;SDS011;45043;51.068;7.026;2023-02-01T05:51:12;18.90;;;5.30;;
59271;SDS011;45043;51.068;7.026;2023-02-01T05:54:12;20.40;;;5.20;;
59271;SDS011;45043;51.068;7.026;2023-02-01T05:57:13;17.27;;;4.93;;
59271;SDS011;45043;51.068;7.026;2023-02-01T06:00:13;23.23;;;5.50;;
59271;SDS011;45043;51.068;7.026;2023-02-01T06:03:15;23.53;;;6.10;;
59271;SDS011;45043;51.068;7.026;2023-02-01T06:06:15;19.30;;;5.30;;
59271;SDS011;45043;51.068;7.026;2023-02-01T06:09:16;22.27;;;5.83;;
59271;SDS011;45043;51.068;7.026;2023-02-01T06:12:16;15.60;;;4.73;;
59271;SDS011;45043;51.068;7.026;2023-02-01T06:15:17;16.83;;;5.23;;
59271;SDS011;45043;51.068;7.026;2023-02-01T06:18:18;17.97;;;5.07;;
59271;SDS011;45043;51.068;7.026;2023-02-01T06:21:18;24.23;;;5.27;;
59271;SDS011;45043;51.068;7.026;2023-02-01T06:24:23;21.80;;;5.07;;
59271;SDS011;45043;51.068;7.026;2023-02-01T06:27:24;17.20;;;5.30;;
59271;SDS011;45043;51.068;7.026;2023-02-01T06:30:25;15.43;;;4.97;;
59271;SDS011;45043;51.068;7.026;2023-02-01T06:33:26;15.63;;;5.70;;
59271;SDS011;45043;51.068;7.026;2023-02-01T06:36:27;19.37;;;4.93;;
59271;SDS011;45043;51.068;7.026;2023-02-01T06:39:27;15.60;;;4.63;;
59271;SDS011;45043;51.068;7.026;2023-02-01T06:42:28;21.40;;;5.00;;
59271;SDS011;45043;51.068;7.026;2023-02-01T06:45:28;17.97;;;5.73;;
59271;SDS011;45043;51.068;7.026;2023-02-01T06:48:29;15.77;;;5.30;;
59271;SDS011;45043;51.068;7.026;2023-02-01T06:51:30;14.10;;;4.37;;
59271;SDS011;45043;51.068;7.026;2023-02-01T06:54:31;19.27;;;4.77;;
59271;SDS011;45043;51.068;7.026;2023-02-01T06:57:33;16.90;;;4.87;;
59271;SDS011;45043;51.068;7.026;2023-02-01T07:00:35;13.63;;;4.60;;
59271;SDS011;45043;51.068;7.026;2023-02-01T07:03:36;13.90;;;4.53;;
59271;SDS011;45043;51.068;7.026;2023-02-01T07:06:37;20.83;;;5.03;;
59271;SDS011;45043;51.068;7.026;2023-02-01T07:09:40;16.60;;;5.13;;
59271;SDS011;45043;51.068;7.026;2023-02-01T07:12:40;16.57;;;4.87;;
59271;SDS011;45043;51.068;7.026;2023-02-01T07:15:41;15.77;;;4.63;;
59271;SDS011;45043;51.068;7.026;2023-02-01T07:18:41;19.63;;;5.43;;
59271;SDS011;45043;51.068;7.026;2023-02-01T07:21:42;18.27;;;4.37;;
59271;SDS011;45043;51.068;7.026;2023-02-01T07:24:42;18.17;;;5.63;;
59271;SDS011;45043;51.068;7.026;2023-02-01T07:27:43;18.17;;;4.97;;
59271;SDS011;45043;51.068;7.026;2023-02-01T07:30:45;12.27;;;4.40;;
59271;SDS011;45043;51.068;7.026;2023-02-01T07:33:50;17.23;;;4.60;;
59271;SDS011;45043;51.068;7.026;2023-02-01T07:36:55;22.47;;;5.60;;
59271;SDS011;45043;51.068;7.026;2023-02-01T07:39:55;18.17;;;4.53;;
59271;SDS011;45043;51.068;7.026;2023-02-01T07:42:55;18.00;;;4.83;;
59271;SDS011;45043;51.068;7.026;2023-02-01T07:45:56;15.40;;;4.67;;
59271;SDS011;45043;51.068;7.026;2023-02-01T07:48:58;17.07;;;5.03;;
59271;SDS011;45043;51.068;7.026;2023-02-01T07:51:58;18.87;;;5.17;;
59271;SDS011;45043;51.068;7.026;2023-02-01T07:54:59;19.77;;;4.63;;
59271;SDS011;45043;51.068;7.026;2023-02-01T07:57:59;17.70;;;5.47;;
59271;SDS011;45043;51.068;7.026;2023-02-01T08:01:00;14.77;;;4.17;;
59271;SDS011;45043;51.068;7.026;2023-02-01T08:04:19;15.87;;;4.40;;
59271;SDS011;45043;51.068;7.026;2023-02-01T08:07:20;12.93;;;4.13;;
59271;SDS011;45043;51.068;7.026;2023-02-01T08:10:22;16.17;;;4.97;;
59271;SDS011;45043;51.068;7.026;2023-02-01T08:13:22;16.70;;;4.57;;
59271;SDS011;45043;51.068;7.026;2023-02-01T08:16:23;17.80;;;4.83;;
59271;SDS011;45043;51.068;7.026;2023-02-01T08:19:24;19.57;;;5.07;;
59271;SDS011;45043;51.068;7.026;2023-02-01T08:22:24;16.17;;;5.20;;
59271;SDS011;45043;51.068;7.026;2023-02-01T08:25:25;15.80;;;5.43;;
59271;SDS011;45043;51.068;7.026;2023-02-01T08:28:25;14.27;;;4.77;;
59271;SDS011;45043;51.068;7.026;2023-02-01T08:31:27;19.13;;;4.97;;
59271;SDS011;45043;51.068;7.026;2023-02-01T08:34:28;11.90;;;4.30;;
59271;SDS011;45043;51.068;7.026;2023-02-01T08:37:29;16.83;;;4.73;;
59271;SDS011;45043;51.068;7.026;2023-02-01T08:40:31;23.90;;;5.53;;
59271;SDS011;45043;51.068;7.026;2023-02-01T08:43:32;15.03;;;4.77;;
59271;SDS011;45043;51.068;7.026;2023-02-01T08:46:32;19.70;;;5.67;;
59271;SDS011;45043;51.068;7.026;2023-02-01T08:49:33;17.70;;;5.43;;
59271;SDS011;45043;51.068;7.026;2023-02-01T08:52:33;18.47;;;4.53;;
59271;SDS011;45043;51.068;7.026;2023-02-01T08:55:34;16.57;;;4.97;;
59271;SDS011;45043;51.068;7.026;2023-02-01T08:58:34;18.80;;;5.37;;
59271;SDS011;45043;51.068;7.026;2023-02-01T09:01:35;20.07;;;5.27;;
59271;SDS011;45043;51.068;7.026;2023-02-01T09:04:35;21.87;;;5.00;;
59271;SDS011;45043;51.068;7.026;2023-02-01T09:07:36;15.33;;;5.07;;
59271;SDS011;45043;51.068;7.026;2023-02-01T09:10:36;19.70;;;5.70;;
59271;SDS011;45043;51.068;7.026;2023-02-01T09:13:37;21.00;;;5.07;;
59271;SDS011;45043;51.068;7.026;2023-02-01T09:16:38;23.33;;;5.83;;
59271;SDS011;45043;51.068;7.026;2023-02-01T09:19:38;14.20;;;5.50;;
59271;SDS011;45043;51.068;7.026;2023-02-01T09:22:39;19.87;;;5.63;;
59271;SDS011;45043;51.068;7.026;2023-02-01T09:25:40;17.50;;;5.70;;
59271;SDS011;45043;51.068;7.026;2023-02-01T09:28:41;14.80;;;5.10;;
59271;SDS011;45043;51.068;7.026;2023-02-01T09:31:41;20.60;;;6.17;;
59271;SDS011;45043;51.068;7.026;2023-02-01T09:34:42;19.40;;;5.30;;
59271;SDS011;45043;51.068;7.026;2023-02-01T09:37:42;16.07;;;5.97;;
59271;SDS011;45043;51.068;7.026;2023-02-01T09:40:43;14.43;;;5.00;;
59271;SDS011;45043;51.068;7.026;2023-02-01T09:43:48;16.17;;;5.37;;
59271;SDS011;45043;51.068;7.026;2023-02-01T09:47:01;15.57;;;4.83;;
59271;SDS011;45043;51.068;7.026;2023-02-01T09:56:35;17.27;;;5.03;;
59271;SDS011;45043;51.068;7.026;2023-02-01T09:59:54;20.13;;;5.50;;
59271;SDS011;45043;51.068;7.026;2023-02-01T10:03:01;17.57;;;5.60;;
59271;SDS011;45043;51.068;7.026;2023-02-01T10:06:16;21.23;;;5.17;;
59271;SDS011;45043;51.068;7.026;2023-02-01T10:12:45;20.73;;;5.77;;
59271;SDS011;45043;51.068;7.026;2023-02-01T10:22:45;21.97;;;5.57;;
59271;SDS011;45043;51.068;7.026;2023-02-01T10:25:55;17.93;;;5.77;;
59271;SDS011;45043;51.068;7.026;2023-02-01T10:29:03;17.30;;;5.63;;
59271;SDS011;45043;51.068;7.026;2023-02-01T10:32:17;17.37;;;5.30;;
59271;SDS011;45043;51.068;7.026;2023-02-01T10:35:38;16.37;;;5.07;;
59271;SDS011;45043;51.068;7.026;2023-02-01T10:38:41;17.33;;;5.70;;
59271;SDS011;45043;51.068;7.026;2023-02-01T10:41:43;19.83;;;5.73;;
59271;SDS011;45043;51.068;7.026;2023-02-01T10:44:43;18.43;;;5.17;;
59271;SDS011;45043;51.068;7.026;2023-02-01T10:47:46;16.27;;;5.00;;
59271;SDS011;45043;51.068;7.026;2023-02-01T10:54:02;17.33;;;4.87;;
59271;SDS011;45043;51.068;7.026;2023-02-01T10:57:09;19.77;;;5.17;;
59271;SDS011;45043;51.068;7.026;2023-02-01T11:00:20;14.60;;;5.10;;
59271;SDS011;45043;51.068;7.026;2023-02-01T11:09:39;15.57;;;5.73;;
59271;SDS011;45043;51.068;7.026;2023-02-01T11:12:40;16.10;;;5.20;;
59271;SDS011;45043;51.068;7.026;2023-02-01T11:15:45;19.47;;;5.67;;
59271;SDS011;45043;51.068;7.026;2023-02-01T11:18:46;15.07;;;5.53;;
59271;SDS011;45043;51.068;7.026;2023-02-01T11:21:58;16.47;;;5.00;;
59271;SDS011;45043;51.068;7.026;2023-02-01T11:25:01;21.03;;;4.97;;
59271;SDS011;45043;51.068;7.026;2023-02-01T11:28:09;16.87;;;6.00;;
59271;SDS011;45043;51.068;7.026;2023-02-01T11:31:12;13.63;;;4.80;;
59271;SDS011;45043;51.068;7.026;2023-02-01T11:34:15;13.70;;;4.60;;
59271;SDS011;45043;51.068;7.026;2023-02-01T11:37:24;14.13;;;4.60;;
59271;SDS011;45043;51.068;7.026;2023-02-01T11:40:29;14.47;;;5.10;;
59271;SDS011;45043;51.068;7.026;2023-02-01T11:43:35;16.83;;;5.07;;
59271;SDS011;45043;51.068;7.026;2023-02-01T11:46:36;17.50;;;4.87;;
59271;SDS011;45043;51.068;7.026;2023-02-01T11:49:37;15.23;;;4.70;;
59271;SDS011;45043;51.068;7.026;2023-02-01T11:52:41;15.73;;;4.83;;
59271;SDS011;45043;51.068;7.026;2023-02-01T11:55:52;12.80;;;4.83;;
59271;SDS011;45043;51.068;7.026;2023-02-01T12:15:01;14.03;;;4.83;;
59271;SDS011;45043;51.068;7.026;2023-02-01T12:18:21;17.57;;;5.30;;
59271;SDS011;45043;51.068;7.026;2023-02-01T12:22:27;14.17;;;5.03;;
59271;SDS011;45043;51.068;7.026;2023-02-01T12:25:18;11.60;;;4.67;;
59271;SDS011;45043;51.068;7.026;2023-02-01T12:28:38;14.63;;;4.83;;
59271;SDS011;45043;51.068;7.026;2023-02-01T12:32:11;18.73;;;4.57;;
59271;SDS011;45043;51.068;7.026;2023-02-01T12:42:09;14.43;;;4.43;;
59271;SDS011;45043;51.068;7.026;2023-02-01T12:52:00;13.13;;;4.33;;
59271;SDS011;45043;51.068;7.026;2023-02-01T13:01:48;18.57;;;4.77;;
59271;SDS011;45043;51.068;7.026;2023-02-01T13:08:17;14.33;;;4.00;;
59271;SDS011;45043;51.068;7.026;2023-02-01T13:11:33;15.20;;;4.70;;
59271;SDS011;45043;51.068;7.026;2023-02-01T13:14:42;12.67;;;4.73;;
59271;SDS011;45043;51.068;7.026;2023-02-01T13:17:46;14.37;;;4.37;;
59271;SDS011;45043;51.068;7.026;2023-02-01T13:20:52;12.97;;;4.60;;
59271;SDS011;45043;51.068;7.026;2023-02-01T13:24:30;15.97;;;4.77;;
59271;SDS011;45043;51.068;7.026;2023-02-01T13:27:35;15.67;;;4.77;;
59271;SDS011;45043;51.068;7.026;2023-02-01T13:30:45;14.87;;;4.43;;
59271;SDS011;45043;51.068;7.026;2023-02-01T13:38:01;13.60;;;4.33;;
59271;SDS011;45043;51.068;7.026;2023-02-01T13:44:31;10.70;;;3.83;;
59271;SDS011;45043;51.068;7.026;2023-02-01T13:47:41;18.63;;;4.57;;
59271;SDS011;45043;51.068;7.026;2023-02-01T13:50:49;14.63;;;4.70;;
59271;SDS011;45043;51.068;7.026;2023-02-01T13:53:53;14.70;;;4.43;;
59271;SDS011;45043;51.068;7.026;2023-02-01T13:56:53;17.67;;;4.97;;
59271;SDS011;45043;51.068;7.026;2023-02-01T14:00:04;13.23;;;4.30;;
59271;SDS011;45043;51.068;7.026;2023-02-01T14:03:09;14.03;;;5.00;;
59271;SDS011;45043;51.068;7.026;2023-02-01T14:09:18;12.53;;;4.43;;
59271;SDS011;45043;51.068;7.026;2023-02-01T14:19:07;12.73;;;3.90;;
59271;SDS011;45043;51.068;7.026;2023-02-01T14:25:26;9.43;;;3.73;;
59271;SDS011;45043;51.068;7.026;2023-02-01T14:28:33;11.83;;;3.83;;
59271;SDS011;45043;51.068;7.026;2023-02-01T14:34:56;11.20;;;3.80;;
59271;SDS011;45043;51.068;7.026;2023-02-01T14:38:00;16.63;;;4.57;;
59271;SDS011;45043;51.068;7.026;2023-02-01T14:44:27;13.57;;;4.10;;
59271;SDS011;45043;51.068;7.026;2023-02-01T14:47:31;16.00;;;3.83;;
59271;SDS011;45043;51.068;7.026;2023-02-01T14:53:33;14.03;;;3.57;;
59271;SDS011;45043;51.068;7.026;2023-02-01T14:56:35;11.93;;;4.77;;
59271;SDS011;45043;51.068;7.026;2023-02-01T14:59:36;14.60;;;3.77;;
59271;SDS011;45043;51.068;7.026;2023-02-01T15:02:37;17.57;;;3.83;;
59271;SDS011;45043;51.068;7.026;2023-02-01T15:05:40;16.30;;;3.77;;
59271;SDS011;45043;51.068;7.026;2023-02-01T15:08:40;15.47;;;3.80;;
59271;SDS011;45043;51.068;7.026;2023-02-01T15:18:16;13.83;;;4.07;;
59271;SDS011;45043;51.068;7.026;2023-02-01T15:21:21;11.93;;;3.43;;
59271;SDS011;45043;51.068;7.026;2023-02-01T15:24:27;18.97;;;4.10;;
59271;SDS011;45043;51.068;7.026;2023-02-01T15:27:30;14.30;;;4.17;;
59271;SDS011;45043;51.068;7.026;2023-02-01T15:30:38;17.27;;;4.50;;
59271;SDS011;45043;51.068;7.026;2023-02-01T15:33:39;14.90;;;4.20;;
59271;SDS011;45043;51.068;7.026;2023-02-01T15:36:40;15.23;;;4.67;;
59271;SDS011;45043;51.068;7.026;2023-02-01T15:43:11;16.47;;;4.37;;
59271;SDS011;45043;51.068;7.026;2023-02-01T15:46:18;17.30;;;3.53;;
59271;SDS011;45043;51.068;7.026;2023-02-01T15:52:37;13.67;;;3.90;;
59271;SDS011;45043;51.068;7.026;2023-02-01T15:55:40;15.20;;;4.33;;
59271;SDS011;45043;51.068;7.026;2023-02-01T15:58:43;12.70;;;4.17;;
59271;SDS011;45043;51.068;7.026;2023-02-01T16:01:47;13.40;;;3.90;;
59271;SDS011;45043;51.068;7.026;2023-02-01T16:04:49;14.20;;;3.87;;
59271;SDS011;45043;51.068;7.026;2023-02-01T16:07:59;12.17;;;3.87;;
59271;SDS011;45043;51.068;7.026;2023-02-01T16:14:07;16.27;;;3.83;;
59271;SDS011;45043;51.068;7.026;2023-02-01T16:17:07;11.33;;;3.73;;
59271;SDS011;45043;51.068;7.026;2023-02-01T16:20:09;14.43;;;4.90;;
59271;SDS011;45043;51.068;7.026;2023-02-01T16:23:11;16.43;;;3.90;;
59271;SDS011;45043;51.068;7.026;2023-02-01T16:26:11;18.43;;;5.10;;
59271;SDS011;45043;51.068;7.026;2023-02-01T16:29:11;8.57;;;3.70;;
59271;SDS011;45043;51.068;7.026;2023-02-01T16:32:14;12.87;;;4.17;;
59271;SDS011;45043;51.068;7.026;2023-02-01T16:35:20;15.27;;;4.23;;
59271;SDS011;45043;51.068;7.026;2023-02-01T16:38:25;14.67;;;4.63;;
59271;SDS011;45043;51.068;7.026;2023-02-01T16:41:26;15.63;;;4.63;;
59271;SDS011;45043;51.068;7.026;2023-02-01T16:44:28;18.13;;;4.40;;
59271;SDS011;45043;51.068;7.026;2023-02-01T16:47:28;13.97;;;3.77;;
59271;SDS011;45043;51.068;7.026;2023-02-01T16:50:29;11.00;;;4.23;;
59271;SDS011;45043;51.068;7.026;2023-02-01T16:53:32;18.33;;;4.50;;
59271;SDS011;45043;51.068;7.026;2023-02-01T16:56:33;15.70;;;4.23;;
59271;SDS011;45043;51.068;7.026;2023-02-01T16:59:35;17.73;;;4.63;;
59271;SDS011;45043;51.068;7.026;2023-02-01T17:02:36;15.17;;;4.87;;
59271;SDS011;45043;51.068;7.026;2023-02-01T17:05:37;19.43;;;4.90;;
59271;SDS011;45043;51.068;7.026;2023-02-01T17:08:42;13.20;;;4.10;;
59271;SDS011;45043;51.068;7.026;2023-02-01T17:11:45;14.37;;;4.00;;
59271;SDS011;45043;51.068;7.026;2023-02-01T17:14:46;15.87;;;4.67;;
59271;SDS011;45043;51.068;7.026;2023-02-01T17:17:47;18.93;;;5.27;;
59271;SDS011;45043;51.068;7.026;2023-02-01T17:20:47;18.83;;;4.70;;
59271;SDS011;45043;51.068;7.026;2023-02-01T17:23:48;13.20;;;4.03;;
59271;SDS011;45043;51.068;7.026;2023-02-01T17:26:49;15.97;;;4.70;;
59271;SDS011;45043;51.068;7.026;2023-02-01T17:29:51;11.10;;;3.90;;
59271;SDS011;45043;51.068;7.026;2023-02-01T17:32:53;12.53;;;4.23;;
59271;SDS011;45043;51.068;7.026;2023-02-01T17:35:54;14.10;;;4.70;;
59271;SDS011;45043;51.068;7.026;2023-02-01T17:38:56;17.23;;;4.70;;
59271;SDS011;45043;51.068;7.026;2023-02-01T17:41:59;13.10;;;4.23;;
59271;SDS011;45043;51.068;7.026;2023-02-01T17:45:01;17.37;;;4.50;;
59271;SDS011;45043;51.068;7.026;2023-02-01T17:48:17;21.03;;;5.03;;
59271;SDS011;45043;51.068;7.026;2023-02-01T17:51:20;13.70;;;4.07;;
59271;SDS011;45043;51.068;7.026;2023-02-01T17:54:23;13.83;;;3.93;;
59271;SDS011;45043;51.068;7.026;2023-02-01T17:57:25;11.57;;;4.17;;
59271;SDS011;45043;51.068;7.026;2023-02-01T18:00:25;17.03;;;4.47;;
59271;SDS011;45043;51.068;7.026;2023-02-01T18:03:27;17.87;;;5.07;;
59271;SDS011;45043;51.068;7.026;2023-02-01T18:06:31;14.60;;;5.00;;
59271;SDS011;45043;51.068;7.026;2023-02-01T18:09:34;14.10;;;4.03;;
59271;SDS011;45043;51.068;7.026;2023-02-01T18:12:34;14.90;;;4.20;;
59271;SDS011;45043;51.068;7.026;2023-02-01T18:15:35;12.43;;;4.23;;
59271;SDS011;45043;51.068;7.026;2023-02-01T18:18:36;14.63;;;4.03;;
59271;SDS011;45043;51.068;7.026;2023-02-01T18:21:37;15.17;;;4.47;;
59271;SDS011;45043;51.068;7.026;2023-02-01T18:24:42;16.17;;;3.87;;
59271;SDS011;45043;51.068;7.026;2023-02-01T18:27:43;15.93;;;4.63;;
59271;SDS011;45043;51.068;7.026;2023-02-01T18:30:44;15.47;;;3.87;;
59271;SDS011;45043;51.068;7.026;2023-02-01T18:33:47;13.20;;;3.77;;
59271;SDS011;45043;51.068;7.026;2023-02-01T18:36:52;16.30;;;4.63;;
59271;SDS011;45043;51.068;7.026;2023-02-01T18:39:52;12.07;;;3.93;;
59271;SDS011;45043;51.068;7.026;2023-02-01T18:42:53;17.77;;;4.30;;
59271;SDS011;45043;51.068;7.026;2023-02-01T18:45:53;14.13;;;5.03;;
59271;SDS011;45043;51.068;7.026;2023-02-01T18:48:54;12.60;;;4.00;;
59271;SDS011;45043;51.068;7.026;2023-02-01T18:51:54;12.83;;;4.60;;
59271;SDS011;45043;51.068;7.026;2023-02-01T18:54:55;16.77;;;4.53;;
59271;SDS011;45043;51.068;7.026;2023-02-01T18:57:56;15.83;;;4.53;;
59271;SDS011;45043;51.068;7.026;2023-02-01T19:00:57;11.10;;;3.87;;
59271;SDS011;45043;51.068;7.026;2023-02-01T19:04:04;12.33;;;4.30;;
59271;SDS011;45043;51.068;7.026;2023-02-01T19:07:04;18.40;;;4.53;;
59271;SDS011;45043;51.068;7.026;2023-02-01T19:10:06;20.97;;;4.60;;
59271;SDS011;45043;51.068;7.026;2023-02-01T19:13:09;18.57;;;4.43;;
59271;SDS011;45043;51.068;7.026;2023-02-01T19:16:12;16.80;;;5.00;;
59271;SDS011;45043;51.068;7.026;2023-02-01T19:19:13;21.03;;;4.90;;
59271;SDS011;45043;51.068;7.026;2023-02-01T19:22:14;18.80;;;6.30;;
59271;SDS011;45043;51.068;7.026;2023-02-01T19:25:22;13.50;;;4.23;;
59271;SDS011;45043;51.068;7.026;2023-02-01T19:28:26;14.53;;;4.87;;
59271;SDS011;45043;51.068;7.026;2023-02-01T19:31:27;19.47;;;4.97;;
59271;SDS011;45043;51.068;7.026;2023-02-01T19:34:27;18.40;;;4.87;;
59271;SDS011;45043;51.068;7.026;2023-02-01T19:37:28;17.43;;;4.57;;
59271;SDS011;45043;51.068;7.026;2023-02-01T19:40:29;17.33;;;4.37;;
59271;SDS011;45043;51.068;7.026;2023-02-01T19:43:30;17.97;;;5.10;;
59271;SDS011;45043;51.068;7.026;2023-02-01T19:46:31;15.60;;;4.60;;
59271;SDS011;45043;51.068;7.026;2023-02-01T19:49:32;18.20;;;4.33;;
59271;SDS011;45043;51.068;7.026;2023-02-01T19:52:33;14.73;;;4.40;;
59271;SDS011;45043;51.068;7.026;2023-02-01T19:55:34;14.53;;;4.43;;
59271;SDS011;45043;51.068;7.026;2023-02-01T19:58:35;14.33;;;4.90;;
59271;SDS011;45043;51.068;7.026;2023-02-01T20:01:35;14.07;;;4.10;;
59271;SDS011;45043;51.068;7.026;2023-02-01T20:04:37;14.03;;;4.43;;
59271;SDS011;45043;51.068;7.026;2023-02-01T20:07:38;14.30;;;4.43;;
59271;SDS011;45043;51.068;7.026;2023-02-01T20:10:42;17.40;;;5.03;;
59271;SDS011;45043;51.068;7.026;2023-02-01T20:13:45;14.60;;;4.57;;
59271;SDS011;45043;51.068;7.026;2023-02-01T20:16:46;16.30;;;4.63;;
59271;SDS011;45043;51.068;7.026;2023-02-01T20:19:48;13.77;;;4.50;;
59271;SDS011;45043;51.068;7.026;2023-02-01T20:22:49;14.67;;;5.10;;